createdAt,value
2024-03-15T00:00:35.852Z,96249.65
2024-03-15T00:03:25.295Z,96249.61
2024-03-15T00:05:54.261Z,96250.25
2024-03-15T00:08:22.738Z,96251.08
2024-03-15T00:10:50.913Z,96254.05
2024-03-15T00:13:19.303Z,96250.94
2024-03-15T00:15:47.936Z,96248.58
2024-03-15T00:18:18.636Z,96247.01
2024-03-15T00:20:46.915Z,96249.25
2024-03-15T00:23:15.174Z,96249.20
2024-03-15T00:25:43.264Z,96244.44
2024-03-15T00:28:11.431Z,96246.54
2024-03-15T00:30:42.602Z,96240.10
2024-03-15T00:33:14.393Z,96239.27
2024-03-15T00:35:45.882Z,96233.17
2024-03-15T00:38:13.966Z,96226.77
2024-03-15T00:40:42.771Z,96224.90
2024-03-15T00:43:16.984Z,96222.31
2024-03-15T00:45:45.814Z,96221.98
2024-03-15T00:48:14.327Z,96218.58
2024-03-15T00:50:44.552Z,96216.08
2024-03-15T00:53:13.997Z,96217.27
2024-03-15T00:55:42.237Z,96218.24
2024-03-15T00:58:10.415Z,96219.47
2024-03-15T01:00:38.757Z,96216.89
2024-03-15T01:03:07.301Z,96215.45
2024-03-15T01:05:37.218Z,96213.06
2024-03-15T01:08:07.840Z,96211.43
2024-03-15T01:10:36.040Z,96209.67
2024-03-15T01:13:04.787Z,96210.91
2024-03-15T01:15:33.079Z,96211.72
2024-03-15T01:18:02.534Z,96209.29
2024-03-15T01:20:35.237Z,96210.27
2024-03-15T01:23:06.705Z,96212.00
2024-03-15T01:25:36.259Z,96211.80
2024-03-15T01:28:07.368Z,96210.10
2024-03-15T01:30:35.700Z,96212.73
2024-03-15T01:33:04.866Z,96210.89
2024-03-15T01:35:35.974Z,96211.98
2024-03-15T01:38:05.181Z,96217.45
2024-03-15T01:40:36.596Z,96214.64
2024-03-15T01:43:04.999Z,96214.30
2024-03-15T01:45:33.360Z,96211.02
2024-03-15T01:48:01.599Z,96213.19
2024-03-15T01:50:30.040Z,96212.65
2024-03-15T01:52:59.493Z,96211.34
2024-03-15T01:55:29.205Z,96211.25
2024-03-15T01:58:02.127Z,96213.23
2024-03-15T02:00:31.975Z,96208.61
2024-03-15T02:03:00.565Z,96208.21
2024-03-15T02:05:28.923Z,96208.73
2024-03-15T02:07:57.112Z,96207.02
2024-03-15T02:10:27.358Z,96207.75
2024-03-15T02:12:55.674Z,96204.92
2024-03-15T02:15:23.883Z,96209.27
2024-03-15T02:17:52.163Z,96205.98
2024-03-15T02:20:23.419Z,96208.27
2024-03-15T02:22:51.572Z,96208.66
2024-03-15T02:25:19.754Z,96206.21
2024-03-15T02:27:48.005Z,96208.85
2024-03-15T02:30:17.915Z,96209.91
2024-03-15T02:32:46.357Z,96210.91
2024-03-15T02:35:24.532Z,96212.06
2024-03-15T02:37:56.801Z,96215.08
2024-03-15T02:40:24.981Z,96217.10
2024-03-15T02:42:53.543Z,96220.26
2024-03-15T02:45:23.425Z,96216.59
2024-03-15T02:47:51.991Z,96217.29
2024-03-15T02:50:21.982Z,96218.40
2024-03-15T02:52:50.698Z,96220.09
2024-03-15T02:55:18.837Z,96220.81
2024-03-15T02:57:47.174Z,96220.94
2024-03-15T03:00:16.293Z,96220.71
2024-03-15T03:02:44.718Z,96224.50
2024-03-15T03:05:13.822Z,96225.84
2024-03-15T03:07:42.113Z,96227.96
2024-03-15T03:10:10.248Z,96228.41
2024-03-15T03:12:38.576Z,96229.74
2024-03-15T03:15:07.888Z,96232.61
2024-03-15T03:17:36.543Z,96229.45
2024-03-15T03:20:12.614Z,96236.48
2024-03-15T03:22:41.013Z,96235.05
2024-03-15T03:25:11.530Z,96238.11
2024-03-15T03:27:40.723Z,96241.40
2024-03-15T03:30:10.547Z,96240.98
2024-03-15T03:32:41.245Z,96242.22
2024-03-15T03:35:09.650Z,96240.10
2024-03-15T03:37:38.417Z,96239.38
2024-03-15T03:40:16.145Z,96235.64
2024-03-15T03:42:48.308Z,96232.45
2024-03-15T03:45:20.808Z,96234.07
2024-03-15T03:47:50.783Z,96230.70
2024-03-15T03:50:19.785Z,96232.84
2024-03-15T03:52:49.348Z,96237.97
2024-03-15T03:55:17.671Z,96240.05
2024-03-15T03:57:46.994Z,96239.91
2024-03-15T04:00:15.458Z,96240.22
2024-03-15T04:02:47.523Z,96241.36
2024-03-15T04:05:19.486Z,96244.35
2024-03-15T04:07:48.150Z,96244.00
2024-03-15T04:10:16.388Z,96243.77
2024-03-15T04:12:44.838Z,96244.98
2024-03-15T04:17:44.761Z,96248.85
2024-03-15T04:20:17.637Z,96247.31
2024-03-15T04:22:47.191Z,96248.75
2024-03-15T04:25:18.577Z,96246.61
2024-03-15T04:27:50.233Z,96249.37
2024-03-15T04:30:19.509Z,96253.02
2024-03-15T04:32:47.896Z,96254.27
2024-03-15T04:35:17.748Z,96256.78
2024-03-15T04:37:46.739Z,96257.75
2024-03-15T04:40:16.152Z,96256.27
2024-03-15T04:42:45.621Z,96256.91
2024-03-15T04:45:16.172Z,96257.36
2024-03-15T04:47:45.565Z,96256.38
2024-03-15T04:50:14.465Z,96257.11
2024-03-15T04:52:43.994Z,96256.71
2024-03-15T04:55:12.559Z,96257.84
2024-03-15T04:57:41.593Z,96263.61
2024-03-15T05:00:11.154Z,96263.20
2024-03-15T05:02:39.530Z,96264.04
2024-03-15T05:05:08.643Z,96268.92
2024-03-15T05:07:36.806Z,96273.35
2024-03-15T05:10:05.523Z,96276.95
2024-03-15T05:12:35.122Z,96275.15
2024-03-15T05:15:04.118Z,96275.40
2024-03-15T05:17:32.491Z,96280.41
2024-03-15T05:20:00.650Z,96280.30
2024-03-15T05:22:29.027Z,96281.55
2024-03-15T05:24:57.207Z,96280.96
2024-03-15T05:27:25.506Z,96280.49
2024-03-15T05:29:53.758Z,96279.52
2024-03-15T05:32:21.936Z,96276.95
2024-03-15T05:34:50.013Z,96279.53
2024-03-15T05:37:18.489Z,96278.85
2024-03-15T05:39:47.020Z,96277.70
2024-03-15T05:42:16.079Z,96279.77
2024-03-15T05:44:46.306Z,96281.92
2024-03-15T05:47:17.794Z,96279.05
2024-03-15T05:49:46.540Z,96284.05
2024-03-15T05:52:16.200Z,96283.16
2024-03-15T05:54:44.468Z,96285.44
2024-03-15T05:57:12.947Z,96287.96
2024-03-15T05:59:41.114Z,96289.89
2024-03-15T06:02:09.256Z,96292.98
2024-03-15T06:04:37.756Z,96295.69
2024-03-15T06:07:06.219Z,96296.92
2024-03-15T06:09:34.611Z,96301.66
2024-03-15T06:12:02.942Z,96300.35
2024-03-15T06:14:33.436Z,96308.72
2024-03-15T06:17:03.129Z,96308.72
2024-03-15T06:19:31.289Z,96314.34
2024-03-15T06:21:59.636Z,96316.34
2024-03-15T06:24:27.857Z,96317.20
2024-03-15T06:26:57.788Z,96316.98
2024-03-15T06:29:34.126Z,96317.84
2024-03-15T06:32:02.898Z,96320.17
2024-03-15T06:34:33.726Z,96319.02
2024-03-15T06:37:06.035Z,96315.96
2024-03-15T06:39:37.435Z,96320.08
2024-03-15T06:42:22.830Z,96320.83
2024-03-15T06:45:03.139Z,96320.96
2024-03-15T06:47:33.665Z,96323.11
2024-03-15T06:50:09.966Z,96325.95
2024-03-15T06:52:38.670Z,96324.27
2024-03-15T06:55:12.070Z,96326.46
2024-03-15T06:57:40.808Z,96329.17
2024-03-15T07:00:10.709Z,96324.55
2024-03-15T07:02:44.042Z,96323.88
2024-03-15T07:05:13.286Z,96330.30
2024-03-15T07:07:42.235Z,96333.18
2024-03-15T07:10:15.469Z,96334.67
2024-03-15T07:12:45.321Z,96333.66
2024-03-15T07:15:17.194Z,96334.56
2024-03-15T07:17:47.093Z,96334.51
2024-03-15T07:20:15.531Z,96335.69
2024-03-15T07:22:43.922Z,96335.91
2024-03-15T07:25:12.870Z,96336.81
2024-03-15T07:27:43.280Z,96339.38
2024-03-15T07:30:13.299Z,96339.61
2024-03-15T07:32:42.066Z,96332.42
2024-03-15T07:35:11.545Z,96332.76
2024-03-15T07:37:40.259Z,96334.35
2024-03-15T07:40:12.199Z,96333.96
2024-03-15T07:42:40.891Z,96337.02
2024-03-15T07:45:11.525Z,96335.65
2024-03-15T07:47:40.150Z,96339.09
2024-03-15T07:50:13.369Z,96341.29
2024-03-15T07:52:41.701Z,96336.92
2024-03-15T07:55:10.756Z,96341.14
2024-03-15T07:57:39.283Z,96341.28
2024-03-15T08:00:10.552Z,96339.67
2024-03-15T08:02:38.904Z,96342.71
2024-03-15T08:05:07.690Z,96339.95
2024-03-15T08:07:35.912Z,96343.45
2024-03-15T08:10:07.076Z,96345.80
2024-03-15T08:12:35.910Z,96343.88
2024-03-15T08:15:06.141Z,96338.88
2024-03-15T08:17:36.959Z,96340.58
2024-03-15T08:20:09.802Z,96346.68
2024-03-15T08:22:40.275Z,96349.23
2024-03-15T08:25:10.703Z,96351.27
2024-03-15T08:27:41.431Z,96347.06
2024-03-15T08:30:11.503Z,96351.42
2024-03-15T08:32:39.671Z,96352.96
2024-03-15T08:35:09.402Z,96352.12
2024-03-15T08:37:37.661Z,96352.35
2024-03-15T08:40:10.793Z,96353.55
2024-03-15T08:42:39.102Z,96352.46
2024-03-15T08:45:10.513Z,96349.91
2024-03-15T08:47:51.103Z,96348.10
2024-03-15T08:50:34.773Z,96346.92
2024-03-15T08:53:04.815Z,96347.95
2024-03-15T08:55:33.732Z,96346.71
2024-03-15T08:58:03.602Z,96349.91
2024-03-15T09:00:31.908Z,96349.54
2024-03-15T09:03:00.395Z,96350.65
2024-03-15T09:05:28.750Z,96349.04
2024-03-15T09:07:59.306Z,96349.05
2024-03-15T09:10:28.748Z,96346.64
2024-03-15T09:12:57.456Z,96350.85
2024-03-15T09:15:28.197Z,96349.35
2024-03-15T09:18:00.933Z,96349.56
2024-03-15T09:20:32.713Z,96350.51
2024-03-15T09:23:04.114Z,96348.59
2024-03-15T09:25:32.393Z,96348.61
2024-03-15T09:28:01.541Z,96351.88
2024-03-15T09:30:41.968Z,96349.59
2024-03-15T09:33:15.314Z,96346.46
2024-03-15T09:35:47.777Z,96349.94
2024-03-15T09:38:16.639Z,96348.11
2024-03-15T09:40:45.065Z,96345.56
2024-03-15T09:43:15.581Z,96344.11
2024-03-15T09:45:44.789Z,96343.00
2024-03-15T09:48:14.248Z,96342.02
2024-03-15T09:50:46.406Z,96345.98
2024-03-15T09:53:15.761Z,96352.14
2024-03-15T09:55:44.203Z,96351.09
2024-03-15T09:58:12.657Z,96351.72
2024-03-15T10:00:43.328Z,96345.94
2024-03-15T10:03:11.752Z,96346.14
2024-03-15T10:05:40.595Z,96342.98
2024-03-15T10:08:08.821Z,96337.33
2024-03-15T10:10:41.590Z,96337.64
2024-03-15T10:13:10.015Z,96337.89
2024-03-15T10:15:45.867Z,96339.38
2024-03-15T10:18:14.626Z,96339.94
2024-03-15T10:20:45.429Z,96339.05
2024-03-15T10:23:13.851Z,96336.70
2024-03-15T10:25:42.000Z,96338.17
2024-03-15T10:28:13.523Z,96336.29
2024-03-15T10:30:44.085Z,96333.48
2024-03-15T10:33:13.156Z,96333.54
2024-03-15T10:35:42.385Z,96333.41
2024-03-15T10:38:15.334Z,96334.09
2024-03-15T10:40:44.595Z,96329.59
2024-03-15T10:43:13.651Z,96329.10
2024-03-15T10:45:45.114Z,96325.24
2024-03-15T10:48:14.409Z,96323.49
2024-03-15T10:50:45.571Z,96322.20
2024-03-15T10:53:18.389Z,96320.35
2024-03-15T10:55:49.275Z,96324.66
2024-03-15T10:58:18.560Z,96326.73
2024-03-15T11:00:48.113Z,96322.29
2024-03-15T11:03:19.472Z,96321.64
2024-03-15T11:05:48.838Z,96321.35
2024-03-15T11:08:21.305Z,96325.80
2024-03-15T11:11:08.420Z,96328.27
2024-03-15T11:13:40.560Z,96328.48
2024-03-15T11:16:19.409Z,96328.05
2024-03-15T11:18:47.680Z,96329.34
2024-03-15T11:21:23.435Z,96330.21
2024-03-15T11:23:52.666Z,96329.46
2024-03-15T11:26:22.833Z,96324.77
2024-03-15T11:28:59.974Z,96323.08
2024-03-15T11:31:31.303Z,96318.68
2024-03-15T11:34:01.981Z,96321.48
2024-03-15T11:36:30.703Z,96320.40
2024-03-15T11:39:00.576Z,96319.90
2024-03-15T11:41:29.623Z,96319.56
2024-03-15T11:43:58.025Z,96317.95
2024-03-15T11:46:26.316Z,96322.20
2024-03-15T11:48:54.750Z,96319.45
2024-03-15T11:51:23.367Z,96319.83
2024-03-15T11:53:51.732Z,96316.86
2024-03-15T11:56:21.162Z,96314.44
2024-03-15T11:58:50.406Z,96313.55
2024-03-15T12:01:18.892Z,96313.58
2024-03-15T12:03:47.682Z,96313.65
2024-03-15T12:06:16.795Z,96310.64
2024-03-15T12:08:45.124Z,96312.63
2024-03-15T12:11:17.338Z,96315.22
2024-03-15T12:13:47.716Z,96314.19
2024-03-15T12:16:16.017Z,96317.27
2024-03-15T12:18:44.813Z,96317.81
2024-03-15T12:21:13.192Z,96314.83
2024-03-15T12:23:41.431Z,96312.89
2024-03-15T12:26:10.573Z,96312.39
2024-03-15T12:28:39.425Z,96309.38
2024-03-15T12:31:07.797Z,96306.55
2024-03-15T12:33:36.199Z,96307.20
2024-03-15T12:36:06.543Z,96306.22
2024-03-15T12:38:35.588Z,96304.21
2024-03-15T12:41:04.603Z,96306.76
2024-03-15T12:43:33.560Z,96308.15
2024-03-15T12:46:08.560Z,96309.73
2024-03-15T12:48:37.629Z,96307.89
2024-03-15T12:51:05.806Z,96305.25
2024-03-15T12:53:34.070Z,96299.46
2024-03-15T12:56:02.141Z,96295.69
2024-03-15T12:58:30.420Z,96295.14
2024-03-15T13:00:59.029Z,96298.90
2024-03-15T13:03:27.418Z,96298.47
2024-03-15T13:05:55.863Z,96298.54
2024-03-15T13:08:24.873Z,96294.67
2024-03-15T13:10:53.068Z,96298.89
2024-03-15T13:13:21.722Z,96295.52
2024-03-15T13:15:49.948Z,96297.07
2024-03-15T13:18:18.781Z,96300.23
2024-03-15T13:20:47.991Z,96296.77
2024-03-15T13:23:16.266Z,96294.78
2024-03-15T13:25:44.444Z,96296.85
2024-03-15T13:28:12.827Z,96296.59
2024-03-15T13:30:41.633Z,96296.37
2024-03-15T13:33:11.402Z,96300.12
2024-03-15T13:35:43.462Z,96298.64
2024-03-15T13:38:15.908Z,96296.80
2024-03-15T13:40:44.966Z,96300.91
2024-03-15T13:43:13.549Z,96298.64
2024-03-15T13:45:41.892Z,96302.10
2024-03-15T13:48:12.526Z,96305.91
2024-03-15T13:50:40.848Z,96306.30
2024-03-15T13:53:10.065Z,96307.65
2024-03-15T13:55:38.986Z,96310.55
2024-03-15T13:58:08.881Z,96306.77
2024-03-15T14:00:39.778Z,96306.23
2024-03-15T14:03:09.748Z,96308.41
2024-03-15T14:05:42.310Z,96308.70
2024-03-15T14:08:15.158Z,96309.57
2024-03-15T14:10:44.002Z,96309.56
2024-03-15T14:13:16.989Z,96312.13
2024-03-15T14:15:45.924Z,96306.59
2024-03-15T14:18:15.528Z,96306.59
2024-03-15T14:20:45.802Z,96303.79
2024-03-15T14:23:14.896Z,96306.35
2024-03-15T14:25:46.555Z,96304.23
2024-03-15T14:28:15.202Z,96304.80
2024-03-15T14:30:45.463Z,96303.98
2024-03-15T14:33:13.788Z,96304.59
2024-03-15T14:35:42.634Z,96304.19
2024-03-15T14:38:11.268Z,96305.12
2024-03-15T14:40:41.573Z,96303.79
2024-03-15T14:43:12.812Z,96302.55
2024-03-15T14:45:41.679Z,96301.06
2024-03-15T14:48:15.902Z,96301.75
2024-03-15T14:50:45.834Z,96305.04
2024-03-15T14:53:17.160Z,96310.55
2024-03-15T14:55:46.853Z,96312.42
2024-03-15T14:58:16.123Z,96312.83
2024-03-15T15:00:50.186Z,96313.98
2024-03-15T15:03:24.010Z,96314.81
2024-03-15T15:05:53.187Z,96314.44
2024-03-15T15:08:25.384Z,96314.56
2024-03-15T15:10:54.526Z,96317.60
2024-03-15T15:13:23.315Z,96315.70
2024-03-15T15:15:52.394Z,96310.84
2024-03-15T15:18:21.279Z,96314.41
2024-03-15T15:20:51.461Z,96312.52
2024-03-15T15:23:19.865Z,96309.92
2024-03-15T15:25:48.326Z,96313.11
2024-03-15T15:28:16.858Z,96312.09
2024-03-15T15:30:45.494Z,96313.98
2024-03-15T15:33:13.801Z,96314.65
2024-03-15T15:35:42.190Z,96319.52
2024-03-15T15:38:11.351Z,96320.36
2024-03-15T15:40:39.743Z,96323.61
2024-03-15T15:43:09.965Z,96322.80
2024-03-15T15:45:43.963Z,96325.95
2024-03-15T15:48:14.538Z,96324.63
2024-03-15T15:50:44.982Z,96327.74
2024-03-15T15:53:13.370Z,96329.13
2024-03-15T15:55:42.646Z,96332.89
2024-03-15T15:58:11.372Z,96332.30
2024-03-15T16:00:39.897Z,96331.73
2024-03-15T16:03:08.761Z,96330.48
2024-03-15T16:05:37.725Z,96331.79
2024-03-15T16:08:08.435Z,96332.29
2024-03-15T16:10:38.660Z,96333.60
2024-03-15T16:13:09.206Z,96330.88
2024-03-15T16:15:37.648Z,96334.61
2024-03-15T16:18:06.653Z,96333.14
2024-03-15T16:20:34.869Z,96333.99
2024-03-15T16:23:03.040Z,96335.21
2024-03-15T16:25:31.549Z,96333.61
2024-03-15T16:27:59.795Z,96336.13
2024-03-15T16:30:28.178Z,96337.72
2024-03-15T16:33:01.763Z,96340.38
2024-03-15T16:35:32.687Z,96338.56
2024-03-15T16:38:01.347Z,96341.84
2024-03-15T16:40:30.003Z,96346.27
2024-03-15T16:43:00.183Z,96347.95
2024-03-15T16:45:28.979Z,96345.81
2024-03-15T16:47:57.463Z,96350.05
2024-03-15T16:50:26.681Z,96352.10
2024-03-15T16:52:55.300Z,96353.85
2024-03-15T16:55:25.100Z,96357.98
2024-03-15T16:57:53.465Z,96358.91
2024-03-15T17:00:24.975Z,96361.77
2024-03-15T17:02:53.414Z,96360.88
2024-03-15T17:05:22.006Z,96360.63
2024-03-15T17:07:53.237Z,96361.58
2024-03-15T17:10:22.943Z,96361.52
2024-03-15T17:12:52.316Z,96363.85
2024-03-15T17:15:22.985Z,96361.02
2024-03-15T17:17:51.783Z,96363.48
2024-03-15T17:20:20.030Z,96367.84
2024-03-15T17:22:48.438Z,96370.65
2024-03-15T17:25:17.014Z,96370.80
2024-03-15T17:27:45.218Z,96371.33
2024-03-15T17:30:15.207Z,96368.74
2024-03-15T17:32:45.101Z,96371.45
2024-03-15T17:35:13.644Z,96371.19
2024-03-15T17:37:42.423Z,96372.63
2024-03-15T17:40:11.817Z,96372.30
2024-03-15T17:42:40.647Z,96367.92
2024-03-15T17:45:10.536Z,96368.23
2024-03-15T17:47:40.235Z,96366.17
2024-03-15T17:50:09.297Z,96367.98
2024-03-15T17:52:39.728Z,96365.67
2024-03-15T17:55:09.581Z,96367.92
2024-03-15T17:57:38.565Z,96369.11
2024-03-15T18:00:13.864Z,96373.36
2024-03-15T18:02:42.535Z,96375.80
2024-03-15T18:05:14.395Z,96378.65
2024-03-15T18:07:43.132Z,96377.60
2024-03-15T18:10:11.932Z,96372.98
2024-03-15T18:12:41.363Z,96373.21
2024-03-15T18:15:10.430Z,96378.52
2024-03-15T18:17:39.578Z,96379.63
2024-03-15T18:20:11.571Z,96384.95
2024-03-15T18:22:40.571Z,96383.67
2024-03-15T18:25:09.592Z,96388.71
2024-03-15T18:27:38.073Z,96388.70
2024-03-15T18:30:07.315Z,96390.20
2024-03-15T18:32:35.724Z,96387.64
2024-03-15T18:35:05.335Z,96392.48
2024-03-15T18:37:34.154Z,96396.79
2024-03-15T18:40:02.479Z,96393.80
2024-03-15T18:42:30.908Z,96397.48
2024-03-15T18:45:02.017Z,96405.04
2024-03-15T18:47:33.431Z,96402.05
2024-03-15T18:50:02.287Z,96405.36
2024-03-15T18:52:31.782Z,96407.06
2024-03-15T18:54:59.974Z,96406.91
2024-03-15T18:57:28.983Z,96408.08
2024-03-15T19:00:00.901Z,96407.84
2024-03-15T19:02:31.849Z,96404.73
2024-03-15T19:05:00.268Z,96404.02
2024-03-15T19:07:28.917Z,96410.13
2024-03-15T19:09:58.441Z,96408.42
2024-03-15T19:12:27.321Z,96405.45
2024-03-15T19:14:55.696Z,96403.11
2024-03-15T19:17:23.972Z,96402.98
2024-03-15T19:19:52.259Z,96400.15
2024-03-15T19:22:20.838Z,96394.86
2024-03-15T19:24:50.384Z,96394.54
2024-03-15T19:27:25.243Z,96391.34
2024-03-15T19:29:55.128Z,96390.29
2024-03-15T19:32:34.553Z,96389.89
2024-03-15T19:35:03.931Z,96389.92
2024-03-15T19:37:33.440Z,96392.45
2024-03-15T19:40:02.081Z,96391.13
2024-03-15T19:42:30.854Z,96394.07
2024-03-15T19:44:59.205Z,96393.08
2024-03-15T19:47:27.777Z,96391.46
2024-03-15T19:49:55.962Z,96398.41
2024-03-15T19:52:24.434Z,96398.06
2024-03-15T19:54:52.766Z,96397.09
2024-03-15T19:57:21.410Z,96394.94
2024-03-15T19:59:49.788Z,96394.85
2024-03-15T20:02:18.568Z,96394.05
2024-03-15T20:04:47.049Z,96397.62
2024-03-15T20:07:15.339Z,96394.09
2024-03-15T20:09:43.828Z,96393.08
2024-03-15T20:12:12.399Z,96394.23
2024-03-15T20:14:40.582Z,96392.17
2024-03-15T20:17:08.848Z,96396.79
2024-03-15T20:19:36.870Z,96395.67
2024-03-15T20:22:05.445Z,96395.94
2024-03-15T20:24:33.702Z,96397.80
2024-03-15T20:27:02.165Z,96393.17
2024-03-15T20:29:30.541Z,96395.55
2024-03-15T20:31:58.830Z,96396.55
2024-03-15T20:34:27.001Z,96399.39
2024-03-15T20:36:55.205Z,96401.27
2024-03-15T20:39:24.072Z,96405.60
2024-03-15T20:41:52.443Z,96411.06
2024-03-15T20:44:22.674Z,96411.66
2024-03-15T20:46:51.048Z,96411.42
2024-03-15T20:49:22.098Z,96413.56
2024-03-15T20:51:50.813Z,96418.94
2024-03-15T20:54:19.259Z,96422.23
2024-03-15T20:56:47.434Z,96423.06
2024-03-15T20:59:15.606Z,96425.81
2024-03-15T21:01:55.807Z,96425.07
2024-03-15T21:04:27.213Z,96423.66
2024-03-15T21:06:55.521Z,96420.36
2024-03-15T21:09:23.805Z,96420.46
2024-03-15T21:11:52.354Z,96420.63
2024-03-15T21:14:20.528Z,96421.83
2024-03-15T21:16:49.118Z,96426.73
2024-03-15T21:19:17.704Z,96428.78
2024-03-15T21:21:46.204Z,96431.73
2024-03-15T21:24:14.459Z,96430.70
2024-03-15T21:26:44.264Z,96429.48
2024-03-15T21:29:12.493Z,96427.99
2024-03-15T21:31:40.650Z,96428.60
2024-03-15T21:34:08.939Z,96428.71
2024-03-15T21:36:37.399Z,96430.92
2024-03-15T21:39:12.316Z,96431.36
2024-03-15T21:41:44.111Z,96433.14
2024-03-15T21:44:13.720Z,96431.32
2024-03-15T21:46:44.663Z,96432.48
2024-03-15T21:49:13.244Z,96436.42
2024-03-15T21:51:41.618Z,96433.66
2024-03-15T21:54:10.069Z,96431.83
2024-03-15T21:56:38.453Z,96431.98
2024-03-15T21:59:07.543Z,96436.57
2024-03-15T22:01:39.025Z,96435.69
2024-03-15T22:04:08.054Z,96434.73
2024-03-15T22:06:40.159Z,96437.08
2024-03-15T22:09:12.030Z,96436.80
2024-03-15T22:11:40.708Z,96436.95
2024-03-15T22:14:08.988Z,96434.00
2024-03-15T22:16:37.170Z,96435.88
2024-03-15T22:19:05.980Z,96438.42
2024-03-15T22:21:34.905Z,96440.27
2024-03-15T22:24:03.677Z,96442.58
2024-03-15T22:26:31.922Z,96444.83
2024-03-15T22:29:00.084Z,96445.80
2024-03-15T22:31:28.479Z,96446.64
2024-03-15T22:33:56.775Z,96445.98
2024-03-15T22:36:24.931Z,96447.61
2024-03-15T22:38:54.019Z,96445.82
2024-03-15T22:41:23.481Z,96444.45
2024-03-15T22:43:52.376Z,96443.49
2024-03-15T22:46:20.792Z,96442.82
2024-03-15T22:48:49.113Z,96441.95
2024-03-15T22:51:17.352Z,96442.34
2024-03-15T22:53:45.838Z,96440.96
2024-03-15T22:56:14.009Z,96440.22
2024-03-15T22:58:42.487Z,96440.95
2024-03-15T23:01:12.911Z,96439.84
2024-03-15T23:03:47.347Z,96440.40
2024-03-15T23:06:16.814Z,96436.08
2024-03-15T23:08:47.634Z,96439.01
2024-03-15T23:11:16.047Z,96441.35
2024-03-15T23:13:45.441Z,96443.20
2024-03-15T23:16:13.882Z,96444.34
2024-03-15T23:18:42.172Z,96444.86
2024-03-15T23:21:10.631Z,96444.55
2024-03-15T23:23:38.988Z,96446.84
2024-03-15T23:26:09.543Z,96446.55
2024-03-15T23:28:37.710Z,96446.16
2024-03-15T23:31:07.481Z,96444.91
2024-03-15T23:33:36.475Z,96444.70
2024-03-15T23:36:05.238Z,96443.82
2024-03-15T23:38:34.879Z,96444.64
2024-03-15T23:41:05.220Z,96447.88
2024-03-15T23:43:34.122Z,96448.32
2024-03-15T23:46:02.889Z,96448.75
2024-03-15T23:48:34.080Z,96446.95
2024-03-15T23:51:02.695Z,96447.44
2024-03-15T23:53:31.022Z,96445.77
2024-03-15T23:55:59.947Z,96448.30
2024-03-15T23:58:30.650Z,96447.08
